AirNav   TITAN Aviation Fuels
 
 1492 users online  

WY11 A Bar A Ranch Airport
Encampment, Wyoming, USA

GOING TO ENCAMPMENT?


FAA INFORMATION EFFECTIVE 22 APRIL 2021

Location

FAA Identifier: WY11
Lat/Long: 41-09-29.8870N 106-33-27.1110W
41-09.498117N 106-33.451850W
41.1583019,-106.5575308
(estimated)
Elevation: 7880 ft. / 2402 m (estimated)
Variation: 13E (1985)
From city: 11 miles E of ENCAMPMENT, WY
Time zone: UTC -6 (UTC -7 during Standard Time)
Zip code: 82325

Airport Operations

Airport use: Private use. Permission required prior to landing
Activation date: 11/1963
Control tower: no
ARTCC: DENVER CENTER
FSS: CASPER FLIGHT SERVICE STATION
Attendance: UNATNDD
Wind indicator: yes
Segmented circle: no
Landing fee: yes

Airport Communications

UNICOM: 122.8

Nearby radio navigation aids

VOR radial/distance  VOR name  Freq  Var
LARr240/39.2LARAMIE VOR/DME117.6014E

 
NDB name  Hdg/Dist  Freq  Var  ID
SARATOGA132/21.226612ESAA ... .- .-

Airport Services

Airframe service: NONE
Powerplant service: NONE

Runway Information

Runway NW/SE

Dimensions: 5704 x 50 ft. / 1739 x 15 m
Surface: asphalt, in excellent condition
RUNWAY NW  RUNWAY SE
Traffic pattern: leftleft

Airport Ownership and Management from official FAA records

Ownership: Privately-owned
Owner: A BAR A RANCH
PO BOX 247
ENCAMPMENT, WY 82325
Phone 307-327-5454
Manager: JUSTIN HOWE
PO BOX 247
ENCAMPMENT, WY 82325
Phone 307-327-5454

Airport Operational Statistics

Aircraft based on the field: 1
Single engine airplanes: 1
    

Additional Remarks

FREQUENT CROSS WIND.
NUMEROUS HILLS AROUND ARPT. HILL ON S END OF RY FROM 3800 FT TO 4900 FT.
FLY OVER PRIOR TO LANDING RECOMMENDED.
CALL A BAR A RANCH TO ARRANGE PICK-UP AND RY SECURITY 307-327-5454.
ROAD CROSSES MID-FLD.
UNICOM TO A BAR A AVBL FM AIR ONLY.
RANCH HQ 4 MIS E OF RWY.
FOR CD CTC DENVER ARTCC AT 303-651-4257.

Instrument Procedures

There are no published instrument procedures at WY11.

Some nearby airports with instrument procedures:

KSAA - Shively Field Airport (21 nm NW)
33V - Walden-Jackson County Airport (28 nm SE)
KLAR - Laramie Regional Airport (41 nm E)
KSBS - Steamboat Springs Airport/Bob Adams Field (41 nm S)
KDWX - Dixon Airport (43 nm W)
 
Loc | Ops | Rwys | IFR | FBO | Links
Com | Nav | Svcs | Stats | Notes

AirBoss

 
Area around WY11 (A Bar A Ranch Airport)
 
Road maps at: MapQuest Bing Google
 
Aerial photo
WARNING: Photo may not be current or correct
Aerial photo of WY11 (A Bar A Ranch Airport)
looking southeast.

Do you have a better or more recent aerial photo of A Bar A Ranch Airport that you would like to share? If so, please send us your photo.

 
Sectional chart

 
Airport distance calculator
Flying to A Bar A Ranch Airport? Find the distance to fly.

From to WY11

Sunrise and sunset
Times for 14-May-2021
 Local
(UTC-6)
 Zulu
(UTC)
Morning civil twilight05:1911:19
Sunrise05:5011:50
Sunset20:1502:15
Evening civil twilight20:4702:47

Current date and time
Zulu (UTC)  14-May-2021 20:14:49
Local (UTC-6)  14-May-2021 14:14:49
 
METAR
KSAA 
21nm NW 
141955Z AUTO 00000KT 10SM -RA SCT045 BKN065 BKN080 18/M01 A3011 RMK AO2 LTG DSNT NW
K33V 
28nm SE 
141955Z AUTO 31010KT 10SM SCT090 SCT110 16/M04 A3018 RMK AO2 T01631042
KEHY 
35nm N 
141955Z AUTO 00000KT 10SM CLR 18/M08 A3010 RMK AO2 LTG DSNT W PWINO
KSBS 
41nm S 
141955Z AUTO 27010G18KT 10SM SCT095 21/M02 A3008 RMK AO1 T02091024
KLAR 
41nm E 
141953Z AUTO 28013G31KT 7SM -RA SCT048 BKN070 OVC080 12/02 A3016 RMK AO2 PK WND 23031/1948 LTG DSNT E RAE09B48 SLP152 P0000 T01220022
TAF
KLAR 
41nm E 
141739Z 1418/1518 20006KT P6SM BKN110 FM141900 34014G22KT P6SM VCTS BKN110CB FM150100 15010KT P6SM VCSH BKN060 FM150400 14006KT 6SM BR BKN025 FM151000 16004KT 2SM BR BKN007 FM151400 14006KT P6SM OVC050
KRWL 
47nm NW 
141739Z 1418/1518 26009KT P6SM BKN100 FM141900 29015G25KT P6SM VCSH BKN100 FM150100 03012KT P6SM VCTS BKN080CB FM150400 04006KT P6SM BKN100
NOTAMs
Click for the latest NOTAMs
NOTAMs are issued by the DoD/FAA and will open in a separate window not controlled by AirNav.

 

 
 

Would you like to see your business listed on this page?

 If your business provides an interesting product or service to pilots, flight crews, aircraft, or users of the A Bar A Ranch Airport, you should consider listing it here.  To start the listing process, click on the button below
 
Add a business
 

Other Pages about A Bar A Ranch Airport

Update a link
 
Copyright © AirNav, LLC. All rights reserved. Privacy Policy  Contact